HBA weather

Arelauquen Heliport
San Carlos De Bariloche, Río Negro Province, Argentina

Public forecast

Using degrees Celsius for public forecast. Weather courtesy of forecast.io.

Closest aviation weather report (METAR) to Arelauquen Heliport

Closest report is San Carlos De Bariloche Airport, 9.4 nm (17.5 km) E. Retrieved 2020/07/09 18:00 UTC (6 minutes ago):

SAZS 091800Z 29010KT 4000 RA SCT007 BKN014 OVC025 03/03 Q0999

Closest aviation forecast (TAF) to Arelauquen Heliport

Closest forecast is San Carlos De Bariloche Airport, 9.4 nm (17.5 km) E. Retrieved 2020/07/09 18:00 UTC (6 minutes ago):

TAF SAZS 091700Z 0918/1018 32005KT 7000 RA SCT010 BKN020 OVC030 TX05/0918Z TNM01/1010Z TEMPO 0921/0904 VRB05KT 5000 RA BKN015 OVC030 BECMG 1004/1006 9999 NSW BKN015 BECMG 1011/1015 SCT030 BECMG 1012/1015 30015KT